Map

Track Data

SID SEASON NUMBER BASIN SUBBASIN NAME ISO_TIME NATURE LAT LON WMO_WIND WMO_PRES WMO_AGENCY TRACK_TYPE DIST2LAND LANDFALL IFLAG USA_AGENCY USA_ATCF_ID USA_LAT USA_LON USA_RECORD USA_STATUS USA_WIND USA_PRES USA_SSHS USA_R34_NE USA_R34_SE USA_R34_SW USA_R34_NW USA_R50_NE USA_R50_SE USA_R50_SW USA_R50_NW USA_R64_NE USA_R64_SE USA_R64_SW USA_R64_NW USA_POCI USA_ROCI USA_RMW USA_EYE TOKYO_LAT TOKYO_LON TOKYO_GRADE TOKYO_WIND TOKYO_PRES TOKYO_R50_DIR TOKYO_R50_LONG TOKYO_R50_SHORT TOKYO_R30_DIR TOKYO_R30_LONG TOKYO_R30_SHORT TOKYO_LAND CMA_LAT CMA_LON CMA_CAT CMA_WIND CMA_PRES HKO_LAT HKO_LON HKO_CAT HKO_WIND HKO_PRES NEWDELHI_LAT NEWDELHI_LON NEWDELHI_GRADE NEWDELHI_WIND NEWDELHI_PRES NEWDELHI_CI NEWDELHI_DP NEWDELHI_POCI REUNION_LAT REUNION_LON REUNION_TYPE REUNION_WIND REUNION_PRES REUNION_TNUM REUNION_CI REUNION_RMW REUNION_R34_NE REUNION_R34_SE REUNION_R34_SW REUNION_R34_NW REUNION_R50_NE REUNION_R50_SE REUNION_R50_SW REUNION_R50_NW REUNION_R64_NE REUNION_R64_SE REUNION_R64_SW REUNION_R64_NW BOM_LAT BOM_LON BOM_TYPE BOM_WIND BOM_PRES BOM_TNUM BOM_CI BOM_RMW BOM_R34_NE BOM_R34_SE BOM_R34_SW BOM_R34_NW BOM_R50_NE BOM_R50_SE BOM_R50_SW BOM_R50_NW BOM_R64_NE BOM_R64_SE BOM_R64_SW BOM_R64_NW BOM_ROCI BOM_POCI BOM_EYE BOM_POS_METHOD BOM_PRES_METHOD NADI_LAT NADI_LON NADI_CAT NADI_WIND NADI_PRES WELLINGTON_LAT WELLINGTON_LON WELLINGTON_WIND WELLINGTON_PRES DS824_LAT DS824_LON DS824_STAGE DS824_WIND DS824_PRES TD9636_LAT TD9636_LON TD9636_STAGE TD9636_WIND TD9636_PRES TD9635_LAT TD9635_LON TD9635_WIND TD9635_PRES TD9635_ROCI NEUMANN_LAT NEUMANN_LON NEUMANN_CLASS NEUMANN_WIND NEUMANN_PRES MLC_LAT MLC_LON MLC_CLASS MLC_WIND MLC_PRES USA_GUST BOM_GUST BOM_GUST_PER REUNION_GUST REUNION_GUST_PER USA_SEAHGT USA_SEARAD_NE USA_SEARAD_SE USA_SEARAD_SW USA_SEARAD_NW STORM_SPEED STORM_DIR
1986198N10245 1986 64 EP MM ESTELLE 1986-07-16 12:00:00 TS 10.3000 -115.000 30 hurdat_epa main 1479 1479 O_________O___ hurdat_epa EP051986 10.3000 -115.000 TD 30 -1 10.3000 -115.000 1 30 13 270
1986198N10245 1986 64 EP MM ESTELLE 1986-07-16 15:00:00 TS 10.2952 -115.655 main 1533 1533 P_________P___ EP051986 10.2953 -115.670 TD 30 -1 10.2946 -115.610 1 31 13 270
1986198N10245 1986 64 EP MM ESTELLE 1986-07-16 18:00:00 TS 10.3002 -116.279 30 hurdat_epa main 1561 1561 O_________P___ hurdat_epa EP051986 10.3000 -116.300 TD 30 -1 10.3009 -116.215 1 32 12 272
1986198N10245 1986 64 EP MM ESTELLE 1986-07-16 21:00:00 TS 10.3284 -116.852 main 1589 1589 P_________P___ EP051986 10.3273 -116.865 TD 32 -1 10.3318 -116.813 1 33 11 275
1986198N10245 1986 64 EP MM ESTELLE 1986-07-17 00:00:00 TS 10.4000 -117.400 35 hurdat_epa main 1604 1604 O_________O___ hurdat_epa EP051986 10.4000 -117.400 TS 35 0 10.4000 -117.400 2 35 11 281
1986198N10245 1986 64 EP MM ESTELLE 1986-07-17 03:00:00 TS 10.5296 -117.956 main 1627 1617 P_________P___ EP051986 10.5349 -117.950 TS 37 0 10.5137 -117.972 2 37 11 285
1986198N10245 1986 64 EP MM ESTELLE 1986-07-17 06:00:00 TS 10.6905 -118.507 40 hurdat_epa main 1636 1636 O_________P___ hurdat_epa EP051986 10.7000 -118.500 TS 40 0 10.6621 -118.530 2 40 11 286
1986198N10245 1986 64 EP MM ESTELLE 1986-07-17 09:00:00 TS 10.8448 -119.061 main 1663 1654 P_________P___ EP051986 10.8499 -119.058 TS 42 0 10.8294 -119.072 2 42 11 286
1986198N10245 1986 64 EP MM ESTELLE 1986-07-17 12:00:00 TS 11.0000 -119.600 45 hurdat_epa main 1676 1676 O_________O___ hurdat_epa EP051986 11.0000 -119.600 TS 45 0 11.0000 -119.600 2 45 11 287
1986198N10245 1986 64 EP MM ESTELLE 1986-07-17 15:00:00 TS 11.1498 -120.108 main 1700 1691 P_________P___ EP051986 11.1499 -120.108 TS 45 0 11.1496 -120.111 2 47 10 287
1986198N10245 1986 64 EP MM ESTELLE 1986-07-17 18:00:00 TS 11.2999 -120.602 45 hurdat_epa main 1717 1717 O_________P___ hurdat_epa EP051986 11.3000 -120.600 TS 45 0 11.2994 -120.608 2 50 10 287
1986198N10245 1986 64 EP MM ESTELLE 1986-07-17 21:00:00 TS 11.4498 -121.095 main 1743 1735 P_________P___ EP051986 11.4499 -121.093 TS 50 0 11.4496 -121.101 2 52 10 287
1986198N10245 1986 64 EP MM ESTELLE 1986-07-18 00:00:00 TS 11.6000 -121.600 55 hurdat_epa main 1763 1763 O_________O___ hurdat_epa EP051986 11.6000 -121.600 TS 55 0 11.6000 -121.600 2 55 11 286
1986198N10245 1986 64 EP MM ESTELLE 1986-07-18 03:00:00 TS 11.7499 -122.142 main 1792 1792 P_________P___ EP051986 11.7500 -122.150 TS 55 0 11.7498 -122.118 2 57 11 286
1986198N10245 1986 64 EP MM ESTELLE 1986-07-18 06:00:00 TS 11.8999 -122.686 55 hurdat_epa main 1815 1815 O_________P___ hurdat_epa EP051986 11.9000 -122.700 TS 55 0 11.8997 -122.643 2 60 11 286
1986198N10245 1986 64 EP MM ESTELLE 1986-07-18 09:00:00 TS 12.0498 -123.198 main 1839 1830 P_________P___ EP051986 12.0499 -123.208 TS 60 0 12.0498 -123.171 2 62 10 287
1986198N10245 1986 64 EP MM ESTELLE 1986-07-18 12:00:00 TS 12.2000 -123.700 65 hurdat_epa main 1855 1855 O_________O___ hurdat_epa EP051986 12.2000 -123.700 HU 65 1 12.2000 -123.700 3 65 10 287
1986198N10245 1986 64 EP MM ESTELLE 1986-07-18 15:00:00 TS 12.3498 -124.199 main 1882 1873 P_________P___ EP051986 12.3499 -124.193 HU 65 1 12.3496 -124.217 3 66 10 287
1986198N10245 1986 64 EP MM ESTELLE 1986-07-18 18:00:00 TS 12.4999 -124.709 65 hurdat_epa main 1901 1901 O_________P___ hurdat_epa EP051986 12.5000 -124.700 HU 65 1 12.4994 -124.735 3 67 11 287
1986198N10245 1986 64 EP MM ESTELLE 1986-07-18 21:00:00 TS 12.6555 -125.247 main 1922 1922 P_________P___ EP051986 12.6574 -125.243 HU 67 1 12.6495 -125.261 3 68 11 286
1986198N10245 1986 64 EP MM ESTELLE 1986-07-19 00:00:00 TS 12.8000 -125.800 70 hurdat_epa main 1959 1959 O_________O___ hurdat_epa EP051986 12.8000 -125.800 HU 70 1 12.8000 -125.800 4 70 11 283
1986198N10245 1986 64 EP MM ESTELLE 1986-07-19 03:00:00 TS 12.9076 -126.338 main 1990 1990 P_________P___ EP051986 12.8923 -126.343 HU 72 1 12.9532 -126.324 4 75 11 282
1986198N10245 1986 64 EP MM ESTELLE 1986-07-19 06:00:00 TS 13.0265 -126.892 75 hurdat_epa main 2030 2030 O_________P___ hurdat_epa EP051986 13.0000 -126.900 HU 75 1 13.1062 -126.868 4 80 11 285
1986198N10245 1986 64 EP MM ESTELLE 1986-07-19 09:00:00 TS 13.2082 -127.460 main 2063 2063 P_________P___ EP051986 13.1922 -127.463 HU 82 1 13.2561 -127.453 4 85 12 288
1986198N10245 1986 64 EP MM ESTELLE 1986-07-19 12:00:00 TS 13.4000 -128.100 90 hurdat_epa main 2098 2098 O_________O___ hurdat_epa EP051986 13.4000 -128.100 HU 90 2 13.4000 -128.100 4 90 14 284
1986198N10245 1986 64 EP MM ESTELLE 1986-07-19 15:00:00 TS 13.5548 -128.860 main 2135 2135 P_________P___ EP051986 13.5650 -128.870 HU 90 2 13.5241 -128.832 4 90 16 281
1986198N10245 1986 64 EP MM ESTELLE 1986-07-19 18:00:00 TS 13.6856 -129.681 90 hurdat_epa main 2183 2183 O_________P___ hurdat_epa EP051986 13.7000 -129.700 HU 90 2 13.6425 -129.626 4 90 16 278
1986198N10245 1986 64 EP MM ESTELLE 1986-07-19 21:00:00 TS 13.7909 -130.489 main 2234 2234 P_________P___ EP051986 13.7997 -130.500 HU 90 2 13.7646 -130.457 4 90 16 278
1986198N10245 1986 64 EP MM ESTELLE 1986-07-20 00:00:00 TS 13.9000 -131.300 90 hurdat_epa main 2286 2286 O_________O___ hurdat_epa EP051986 13.9000 -131.300 HU 90 2 13.9000 -131.300 4 90 16 279
1986198N10245 1986 64 EP MM ESTELLE 1986-07-20 03:00:00 TS 14.0419 -132.096 main 2340 2332 P_________P___ EP051986 14.0347 -132.093 HU 92 2 14.0637 -132.106 4 96 16 281
1986198N10245 1986 64 EP MM ESTELLE 1986-07-20 06:00:00 TS 14.2103 -132.905 95 hurdat_epa main 2388 2314 O_________P___ hurdat_epa EP051986 14.2000 -132.900 HU 95 2 14.2411 -132.920 4 102 16 283
1986198N10245 1986 64 EP MM ESTELLE 1986-07-20 09:00:00 TS 14.3999 -133.744 main 2314 2215 P_________P___ EP051986 14.3923 -133.743 HU 105 3 14.4229 -133.750 4 108 17 283
1986198N10245 1986 64 EP MM ESTELLE 1986-07-20 12:00:00 TS 14.6000 -134.600 115 hurdat_epa main 2215 2126 O_________O___ hurdat_epa EP051986 14.6000 -134.600 HU 115 4 14.6000 -134.600 4 115 17 284
1986198N10245 1986 64 EP MM ESTELLE 1986-07-20 15:00:00 TS 14.7999 -135.441 main 2126 2027 P_________P___ EP051986 14.8145 -135.435 HU 115 4 14.7560 -135.459 4 115 17 283
1986198N10245 1986 64 EP MM ESTELLE 1986-07-20 18:00:00 TS 14.9764 -136.310 115 hurdat_epa main 2027 1931 O_________P___ hurdat_epa EP051986 15.0000 -136.300 HU 115 4 14.9057 -136.341 4 115 18 280
1986198N10245 1986 64 EP MM ESTELLE 1986-07-20 21:00:00 TS 15.0991 -137.228 main 1931 1835 P_________P___ EP051986 15.1146 -137.220 HU 115 4 15.0526 -137.253 4 115 18 277
1986198N10245 1986 64 EP MM ESTELLE 1986-07-21 00:00:00 TS 15.2000 -138.200 115 hurdat_epa main 1825 1720 O_________O___ hurdat_epa EP051986 15.2000 -138.200 HU 115 4 15.2000 -138.200 4 115 19 276
1986198N10245 1986 64 EP MM ESTELLE 1986-07-21 03:00:00 TS 15.3020 -139.231 main 1720 1614 P_________P___ EP051986 15.2848 -139.243 HU 115 4 15.3537 -139.197 4 115 20 276
1986198N10245 1986 64 EP CP ESTELLE 1986-07-21 06:00:00 TS 15.4268 -140.282 115 hurdat_epa main 1604 1506 O_________P___ hurdat_epa EP051986 15.4000 -140.300 HU 115 4 15.5070 -140.228 4 115 20 279
1986198N10245 1986 64 EP CP ESTELLE 1986-07-21 09:00:00 TS 15.6138 -141.303 main 1495 1397 P_________P___ EP051986 15.5995 -141.315 HU 115 4 15.6567 -141.269 4 115 20 281
1986198N10245 1986 64 EP CP ESTELLE 1986-07-21 12:00:00 TS 15.7882 -142.300 115 hurdat_epa main 1387 1292 O_________O___ hurdat_epa EP051986 15.8000 -142.300 HU 115 4 15.8000 -142.300 4 115 19 278
1986198N10245 1986 64 EP CP ESTELLE 1986-07-21 15:00:00 TS 15.8939 -143.264 main 1282 1188 P_________P___ EP051986 15.9069 -143.250 HU 115 4 15.9314 -143.318 4 112 19 276
1986198N10245 1986 64 EP CP ESTELLE 1986-07-21 18:00:00 TS 15.9961 -144.225 115 hurdat_epa main 1188 1085 O_________P___ hurdat_epa EP051986 16.0000 -144.200 HU 115 4 16.0566 -144.318 4 110 19 277
1986198N10245 1986 64 EP CP ESTELLE 1986-07-21 21:00:00 TS 16.1397 -145.232 main 1085 987 P_________P___ EP051986 16.1425 -145.222 HU 110 3 16.1785 -145.284 4 107 19 279
1986198N10245 1986 64 EP CP ESTELLE 1986-07-22 00:00:00 TS 16.3000 -146.200 105 hurdat_epa main 977 890 O_________O___ hurdat_epa EP051986 16.3000 -146.200 HU 105 3 16.3000 -146.200 4 105 18 280
1986198N10245 1986 64 EP CP ESTELLE 1986-07-22 03:00:00 TS 16.4625 -147.051 main 880 808 P_________P___ EP051986 16.4568 -147.030 HU 105 3 16.4352 -147.050 4 103 16 281
1986198N10245 1986 64 EP CP ESTELLE 1986-07-22 06:00:00 TS 16.6140 -147.850 105 hurdat_epa main 798 726 O_________P___ hurdat_epa EP051986 16.6000 -147.800 HU 105 3 16.5700 -147.852 4 102 16 280
1986198N10245 1986 64 EP CP ESTELLE 1986-07-22 09:00:00 TS 16.7423 -148.670 main 716 645 P_________P___ EP051986 16.7147 -148.600 HU 102 3 16.6948 -148.628 4 101 16 278
1986198N10245 1986 64 EP CP ESTELLE 1986-07-22 12:00:00 TS 16.8400 -149.480 100 hurdat_epa main 636 566 O_________O___ hurdat_epa EP051986 16.8000 -149.400 HU 100 3 16.8000 -149.400 4 100 15 276
1986198N10245 1986 64 EP CP ESTELLE 1986-07-22 15:00:00 TS 16.9044 -150.275 main 557 495 P_________P___ EP051986 16.8572 -150.200 HU 92 2 16.8786 -150.196 4 96 15 274
1986198N10245 1986 64 EP CP ESTELLE 1986-07-22 18:00:00 TS 16.9472 -151.059 85 hurdat_epa main 487 422 O_________P___ hurdat_epa EP051986 16.9000 -151.000 HU 85 2 16.9361 -150.993 4 92 15 273
1986198N10245 1986 64 EP CP ESTELLE 1986-07-22 21:00:00 TS 16.9923 -151.839 main 422 361 P_________P___ EP051986 16.9572 -151.800 HU 85 2 16.9755 -151.793 4 88 15 273
1986198N10245 1986 64 EP CP ESTELLE 1986-07-23 00:00:00 TS 17.0200 -152.620 85 hurdat_epa main 361 307 O_________O___ hurdat_epa EP051986 17.0000 -152.600 HU 85 2 17.0000 -152.600 4 85 15 271
1986198N10245 1986 64 EP CP ESTELLE 1986-07-23 03:00:00 TS 17.0186 -153.416 main 307 265 P_________P___ EP051986 17.0071 -153.393 HU 82 1 17.0146 -153.459 4 82 15 269
1986198N10245 1986 64 EP CP ESTELLE 1986-07-23 06:00:00 TS 17.0031 -154.224 80 hurdat_epa main 265 225 O_________P___ hurdat_epa EP051986 17.0000 -154.200 HU 80 1 17.0155 -154.318 4 80 16 269
1986198N10245 1986 64 EP CP ESTELLE 1986-07-23 09:00:00 TS 16.9902 -155.067 main 221 212 P_________P___ EP051986 17.0001 -155.072 HU 77 1 17.0085 -155.143 4 77 16 269
1986198N10245 1986 64 EP CP ESTELLE 1986-07-23 12:00:00 TS 16.9800 -155.860 75 hurdat_epa main 213 213 O_________O___ hurdat_epa EP051986 17.0000 -155.900 HU 75 1 17.0000 -155.900 4 75 14 269
1986198N10245 1986 64 EP CP ESTELLE 1986-07-23 15:00:00 TS 16.9757 -156.541 main 228 228 P_________P___ EP051986 16.9997 -156.602 HU 67 1 16.9948 -156.575 4 67 12 270
1986198N10245 1986 64 EP CP ESTELLE 1986-07-23 18:00:00 TS 16.9782 -157.135 60 hurdat_epa main 259 259 O_________P___ hurdat_epa EP051986 17.0000 -157.200 TS 60 0 16.9912 -157.177 4 60 11 271
1986198N10245 1986 64 EP CP ESTELLE 1986-07-23 21:00:00 TS 16.9868 -157.692 main 299 299 P_________P___ EP051986 16.9998 -157.737 TS 52 0 16.9920 -157.716 4 52 10 271
1986198N10245 1986 64 EP CP ESTELLE 1986-07-24 00:00:00 TS 17.0000 -158.180 45 hurdat_epa main 338 338 O_________O___ hurdat_epa EP051986 17.0000 -158.200 TS 45 0 17.0000 -158.200 2 45 9 271
1986198N10245 1986 64 EP CP ESTELLE 1986-07-24 03:00:00 TS 17.0063 -158.604 main 369 369 P_________P___ EP051986 16.9923 -158.615 TS 42 0 17.0048 -158.650 2 42 8 272
1986198N10245 1986 64 EP CP ESTELLE 1986-07-24 06:00:00 TS 17.0238 -158.991 40 hurdat_epa main 403 403 O_________P___ hurdat_epa EP051986 17.0000 -159.000 TS 40 0 17.0190 -159.053 2 40 8 274
1986198N10245 1986 64 EP CP ESTELLE 1986-07-24 09:00:00 TS 17.0607 -159.396 main 432 432 P_________P___ EP051986 17.0349 -159.400 TS 37 0 17.0487 -159.429 2 37 8 277
1986198N10245 1986 64 EP CP ESTELLE 1986-07-24 12:00:00 TS 17.1200 -159.800 35 hurdat_epa main 469 469 O_________O___ hurdat_epa EP051986 17.1000 -159.800 TS 35 0 17.1000 -159.800 2 35 8 280
1986198N10245 1986 64 EP CP ESTELLE 1986-07-24 15:00:00 TS 17.1995 -160.198 main 501 501 P_________P___ EP051986 17.1924 -160.200 TS 35 0 17.1781 -160.192 2 33 8 283
1986198N10245 1986 64 EP CP ESTELLE 1986-07-24 18:00:00 TS 17.2954 -160.597 35 hurdat_epa main 518 518 O_________P___ hurdat_epa EP051986 17.3000 -160.600 TS 35 0 17.2770 -160.585 2 32 8 284
1986198N10245 1986 64 EP CP ESTELLE 1986-07-24 21:00:00 TS 17.3959 -161.003 main 529 524 P_________P___ EP051986 17.3999 -160.993 TS 32 -1 17.3874 -160.986 2 31 8 285
1986198N10245 1986 64 EP CP ESTELLE 1986-07-25 00:00:00 TS 17.5000 -161.420 30 hurdat_epa main 530 530 O_________O___ hurdat_epa EP051986 17.5000 -161.400 TD 30 -1 17.5000 -161.400 1 30 8 284
1986198N10245 1986 64 EP CP ESTELLE 1986-07-25 03:00:00 TS 17.5991 -161.851 main 538 537 P_________P___ EP051986 17.5999 -161.843 TD 30 -1 17.5957 -161.828 1 30 9 283
1986198N10245 1986 64 EP CP ESTELLE 1986-07-25 06:00:00 TS 17.6984 -162.294 30 hurdat_epa main 547 547 O_________P___ hurdat_epa EP051986 17.7000 -162.300 TD 30 -1 17.6921 -162.270 1 30 9 283
1986198N10245 1986 64 EP CP ESTELLE 1986-07-25 09:00:00 TS 17.7939 -162.738 main 559 559 P_________P___ EP051986 17.7923 -162.743 TD 30 -1 17.7925 -162.728 1 30 9 283
1986198N10245 1986 64 EP CP ESTELLE 1986-07-25 12:00:00 TS 17.9000 -163.200 30 hurdat_epa main 580 580 O_________O___ hurdat_epa EP051986 17.9000 -163.200 TD 30 -1 17.9000 -163.200 1 30 9 285
1986198N10245 1986 64 EP CP ESTELLE 1986-07-25 15:00:00 TS 18.0347 -163.693 main 605 596 P_________P___ EP051986 18.0499 -163.692 TD 30 -1 18.0236 -163.686 1 30 10 286
1986198N10245 1986 64 EP CP ESTELLE 1986-07-25 18:00:00 TS 18.1706 -164.197 30 hurdat_epa main 625 625 O_________P___ hurdat_epa EP051986 18.2000 -164.200 TD 30 -1 18.1532 -164.186 1 30 10 284
1986198N10245 1986 64 EP CP ESTELLE 1986-07-25 21:00:00 TS 18.2791 -164.690 main 657 657 P_________P___ EP051986 18.3074 -164.700 TD 30 -1 18.2812 -164.693 1 30 10 283
1986198N10245 1986 64 EP CP ESTELLE 1986-07-26 00:00:00 TS 18.3800 -165.180 30 hurdat_epa main 692 692 O_________O___ hurdat_epa EP051986 18.4000 -165.200 TD 30 -1 18.4000 -165.200 1 30 10 283
1986198N10245 1986 64 EP CP ESTELLE 1986-07-26 03:00:00 TS 18.4876 -165.670 main 729 729 P_________P___ EP051986 18.4978 -165.700 TD 27 -1 18.5045 -165.702 1 27 10 283
1986198N10245 1986 64 EP CP ESTELLE 1986-07-26 06:00:00 TS 18.6000 -166.160 25 hurdat_epa main 767 O_________O___ hurdat_epa EP051986 18.6000 -166.200 TD 25 -1 18.6000 -166.200 1 25 10 284

About IBTrACS Database

This database is a web-friendly format of International Best Track Archive for Climate Stewardship (IBTrACS), a global best track data archive curated by NOAA dating back to 1842.

Updated: 2021-12-01